sensor_id;sensor_type;location;lat;lon;timestamp;P1;durP1;ratioP1;P2;durP2;ratioP2
67981;SDS011;64109;52.148;4.466;2023-03-02T00:01:59;8.55;;;5.72;;
67981;SDS011;64109;52.148;4.466;2023-03-02T00:04:31;9.13;;;6.57;;
67981;SDS011;64109;52.148;4.466;2023-03-02T00:06:59;12.00;;;6.78;;
67981;SDS011;64109;52.148;4.466;2023-03-02T00:09:27;9.85;;;5.97;;
67981;SDS011;64109;52.148;4.466;2023-03-02T00:11:53;12.07;;;6.85;;
67981;SDS011;64109;52.148;4.466;2023-03-02T00:14:19;10.55;;;6.80;;
67981;SDS011;64109;52.148;4.466;2023-03-02T00:16:45;8.60;;;6.47;;
67981;SDS011;64109;52.148;4.466;2023-03-02T00:19:11;10.48;;;6.63;;
67981;SDS011;64109;52.148;4.466;2023-03-02T00:21:37;11.82;;;7.45;;
67981;SDS011;64109;52.148;4.466;2023-03-02T00:24:03;10.48;;;5.93;;
67981;SDS011;64109;52.148;4.466;2023-03-02T00:26:31;9.45;;;6.90;;
67981;SDS011;64109;52.148;4.466;2023-03-02T00:28:57;10.75;;;6.97;;
67981;SDS011;64109;52.148;4.466;2023-03-02T00:31:23;9.77;;;6.80;;
67981;SDS011;64109;52.148;4.466;2023-03-02T00:33:49;10.90;;;7.18;;
67981;SDS011;64109;52.148;4.466;2023-03-02T00:36:18;10.02;;;6.57;;
67981;SDS011;64109;52.148;4.466;2023-03-02T00:38:44;11.20;;;7.35;;
67981;SDS011;64109;52.148;4.466;2023-03-02T00:41:11;10.57;;;6.93;;
67981;SDS011;64109;52.148;4.466;2023-03-02T00:43:38;10.25;;;6.28;;
67981;SDS011;64109;52.148;4.466;2023-03-02T00:46:08;10.52;;;7.35;;
67981;SDS011;64109;52.148;4.466;2023-03-02T00:48:34;10.65;;;7.55;;
67981;SDS011;64109;52.148;4.466;2023-03-02T00:51:00;10.43;;;6.82;;
67981;SDS011;64109;52.148;4.466;2023-03-02T00:53:26;12.25;;;8.10;;
67981;SDS011;64109;52.148;4.466;2023-03-02T00:55:53;12.23;;;7.68;;
67981;SDS011;64109;52.148;4.466;2023-03-02T00:58:19;10.43;;;7.70;;
67981;SDS011;64109;52.148;4.466;2023-03-02T01:00:45;11.02;;;7.32;;
67981;SDS011;64109;52.148;4.466;2023-03-02T01:03:11;11.88;;;7.65;;
67981;SDS011;64109;52.148;4.466;2023-03-02T01:05:37;10.80;;;8.10;;
67981;SDS011;64109;52.148;4.466;2023-03-02T01:08:03;11.90;;;7.68;;
67981;SDS011;64109;52.148;4.466;2023-03-02T01:10:30;10.07;;;7.30;;
67981;SDS011;64109;52.148;4.466;2023-03-02T01:12:56;11.50;;;7.35;;
67981;SDS011;64109;52.148;4.466;2023-03-02T01:15:22;10.85;;;7.60;;
67981;SDS011;64109;52.148;4.466;2023-03-02T01:17:48;11.07;;;7.60;;
67981;SDS011;64109;52.148;4.466;2023-03-02T01:20:14;10.77;;;7.57;;
67981;SDS011;64109;52.148;4.466;2023-03-02T01:22:41;11.20;;;6.30;;
67981;SDS011;64109;52.148;4.466;2023-03-02T01:25:08;11.98;;;7.90;;
67981;SDS011;64109;52.148;4.466;2023-03-02T01:27:34;11.10;;;7.47;;
67981;SDS011;64109;52.148;4.466;2023-03-02T01:30:00;10.32;;;7.15;;
67981;SDS011;64109;52.148;4.466;2023-03-02T01:32:26;10.75;;;7.35;;
67981;SDS011;64109;52.148;4.466;2023-03-02T01:34:52;12.40;;;7.97;;
67981;SDS011;64109;52.148;4.466;2023-03-02T01:37:18;10.40;;;7.25;;
67981;SDS011;64109;52.148;4.466;2023-03-02T01:39:47;12.25;;;7.65;;
67981;SDS011;64109;52.148;4.466;2023-03-02T01:42:13;10.75;;;7.78;;
67981;SDS011;64109;52.148;4.466;2023-03-02T01:44:42;9.77;;;7.03;;
67981;SDS011;64109;52.148;4.466;2023-03-02T01:49:58;10.48;;;6.72;;
67981;SDS011;64109;52.148;4.466;2023-03-02T01:52:25;12.18;;;8.35;;
67981;SDS011;64109;52.148;4.466;2023-03-02T01:54:52;9.35;;;7.43;;
67981;SDS011;64109;52.148;4.466;2023-03-02T01:57:19;11.82;;;7.68;;
67981;SDS011;64109;52.148;4.466;2023-03-02T01:59:46;8.65;;;6.07;;
67981;SDS011;64109;52.148;4.466;2023-03-02T02:02:14;12.55;;;8.10;;
67981;SDS011;64109;52.148;4.466;2023-03-02T02:04:41;11.77;;;7.78;;
67981;SDS011;64109;52.148;4.466;2023-03-02T02:07:07;12.13;;;7.30;;
67981;SDS011;64109;52.148;4.466;2023-03-02T02:09:35;10.50;;;7.07;;
67981;SDS011;64109;52.148;4.466;2023-03-02T02:12:02;10.70;;;7.57;;
67981;SDS011;64109;52.148;4.466;2023-03-02T02:14:29;11.23;;;6.35;;
67981;SDS011;64109;52.148;4.466;2023-03-02T02:16:55;11.48;;;8.45;;
67981;SDS011;64109;52.148;4.466;2023-03-02T02:22:10;12.18;;;7.32;;
67981;SDS011;64109;52.148;4.466;2023-03-02T02:27:05;11.15;;;7.45;;
67981;SDS011;64109;52.148;4.466;2023-03-02T02:29:33;11.63;;;7.43;;
67981;SDS011;64109;52.148;4.466;2023-03-02T02:32:05;11.80;;;7.70;;
67981;SDS011;64109;52.148;4.466;2023-03-02T02:34:52;12.98;;;7.35;;
67981;SDS011;64109;52.148;4.466;2023-03-02T02:37:25;10.80;;;6.97;;
67981;SDS011;64109;52.148;4.466;2023-03-02T02:39:52;10.25;;;7.10;;
67981;SDS011;64109;52.148;4.466;2023-03-02T02:42:20;11.38;;;7.38;;
67981;SDS011;64109;52.148;4.466;2023-03-02T02:44:48;10.43;;;7.15;;
67981;SDS011;64109;52.148;4.466;2023-03-02T02:47:19;11.80;;;7.93;;
67981;SDS011;64109;52.148;4.466;2023-03-02T02:49:46;11.95;;;7.80;;
67981;SDS011;64109;52.148;4.466;2023-03-02T02:52:14;10.40;;;7.78;;
67981;SDS011;64109;52.148;4.466;2023-03-02T02:54:41;10.52;;;6.90;;
67981;SDS011;64109;52.148;4.466;2023-03-02T02:57:08;10.57;;;7.07;;
67981;SDS011;64109;52.148;4.466;2023-03-02T02:59:35;9.25;;;7.35;;
67981;SDS011;64109;52.148;4.466;2023-03-02T03:02:03;8.63;;;6.10;;
67981;SDS011;64109;52.148;4.466;2023-03-02T03:04:30;9.65;;;6.00;;
67981;SDS011;64109;52.148;4.466;2023-03-02T03:06:57;8.90;;;6.63;;
67981;SDS011;64109;52.148;4.466;2023-03-02T03:09:23;7.88;;;6.00;;
67981;SDS011;64109;52.148;4.466;2023-03-02T03:12:13;8.95;;;4.70;;
67981;SDS011;64109;52.148;4.466;2023-03-02T03:14:37;6.97;;;5.57;;
67981;SDS011;64109;52.148;4.466;2023-03-02T03:17:03;7.30;;;5.47;;
67981;SDS011;64109;52.148;4.466;2023-03-02T03:19:36;8.77;;;6.43;;
67981;SDS011;64109;52.148;4.466;2023-03-02T03:22:03;6.88;;;4.30;;
67981;SDS011;64109;52.148;4.466;2023-03-02T03:24:30;9.23;;;6.47;;
67981;SDS011;64109;52.148;4.466;2023-03-02T03:26:56;7.22;;;4.93;;
67981;SDS011;64109;52.148;4.466;2023-03-02T03:29:23;7.38;;;5.72;;
67981;SDS011;64109;52.148;4.466;2023-03-02T03:31:50;6.95;;;5.18;;
67981;SDS011;64109;52.148;4.466;2023-03-02T03:34:16;7.45;;;5.25;;
67981;SDS011;64109;52.148;4.466;2023-03-02T03:36:42;7.80;;;5.35;;
67981;SDS011;64109;52.148;4.466;2023-03-02T03:39:09;6.65;;;5.15;;
67981;SDS011;64109;52.148;4.466;2023-03-02T03:41:36;6.22;;;4.95;;
67981;SDS011;64109;52.148;4.466;2023-03-02T03:44:02;6.75;;;4.93;;
67981;SDS011;64109;52.148;4.466;2023-03-02T03:46:28;9.57;;;6.18;;
67981;SDS011;64109;52.148;4.466;2023-03-02T03:48:54;6.05;;;4.78;;
67981;SDS011;64109;52.148;4.466;2023-03-02T03:51:21;5.95;;;4.93;;
67981;SDS011;64109;52.148;4.466;2023-03-02T03:53:47;5.90;;;4.97;;
67981;SDS011;64109;52.148;4.466;2023-03-02T03:56:26;6.60;;;5.10;;
67981;SDS011;64109;52.148;4.466;2023-03-02T03:58:52;6.05;;;3.65;;
67981;SDS011;64109;52.148;4.466;2023-03-02T04:01:30;6.35;;;5.07;;
67981;SDS011;64109;52.148;4.466;2023-03-02T04:03:58;6.82;;;5.03;;
67981;SDS011;64109;52.148;4.466;2023-03-02T04:06:24;6.35;;;5.10;;
67981;SDS011;64109;52.148;4.466;2023-03-02T04:08:50;6.10;;;4.20;;
67981;SDS011;64109;52.148;4.466;2023-03-02T04:11:16;6.03;;;4.55;;
67981;SDS011;64109;52.148;4.466;2023-03-02T04:13:42;6.30;;;4.38;;
67981;SDS011;64109;52.148;4.466;2023-03-02T04:16:08;6.20;;;4.80;;
67981;SDS011;64109;52.148;4.466;2023-03-02T04:18:34;5.80;;;4.38;;
67981;SDS011;64109;52.148;4.466;2023-03-02T04:21:00;5.93;;;4.35;;
67981;SDS011;64109;52.148;4.466;2023-03-02T04:23:26;7.38;;;4.88;;
67981;SDS011;64109;52.148;4.466;2023-03-02T04:25:52;5.35;;;4.40;;
67981;SDS011;64109;52.148;4.466;2023-03-02T04:28:18;6.43;;;4.82;;
67981;SDS011;64109;52.148;4.466;2023-03-02T04:30:44;6.10;;;4.93;;
67981;SDS011;64109;52.148;4.466;2023-03-02T04:33:10;5.68;;;4.57;;
67981;SDS011;64109;52.148;4.466;2023-03-02T04:35:36;6.93;;;4.85;;
67981;SDS011;64109;52.148;4.466;2023-03-02T04:38:02;6.38;;;4.40;;
67981;SDS011;64109;52.148;4.466;2023-03-02T04:40:28;5.70;;;4.70;;
67981;SDS011;64109;52.148;4.466;2023-03-02T04:42:55;5.68;;;4.30;;
67981;SDS011;64109;52.148;4.466;2023-03-02T04:45:21;5.60;;;4.40;;
67981;SDS011;64109;52.148;4.466;2023-03-02T04:47:46;5.28;;;4.65;;
67981;SDS011;64109;52.148;4.466;2023-03-02T04:50:13;5.70;;;4.18;;
67981;SDS011;64109;52.148;4.466;2023-03-02T04:52:39;5.35;;;4.22;;
67981;SDS011;64109;52.148;4.466;2023-03-02T04:55:06;5.45;;;4.50;;
67981;SDS011;64109;52.148;4.466;2023-03-02T04:57:32;6.15;;;4.68;;
67981;SDS011;64109;52.148;4.466;2023-03-02T04:59:58;5.85;;;4.22;;
67981;SDS011;64109;52.148;4.466;2023-03-02T05:02:24;5.40;;;3.58;;
67981;SDS011;64109;52.148;4.466;2023-03-02T05:04:50;6.78;;;4.63;;
67981;SDS011;64109;52.148;4.466;2023-03-02T05:07:16;6.13;;;4.28;;
67981;SDS011;64109;52.148;4.466;2023-03-02T05:09:42;5.55;;;4.47;;
67981;SDS011;64109;52.148;4.466;2023-03-02T05:12:08;6.68;;;4.53;;
67981;SDS011;64109;52.148;4.466;2023-03-02T05:14:34;5.10;;;3.95;;
67981;SDS011;64109;52.148;4.466;2023-03-02T05:17:00;5.30;;;3.65;;
67981;SDS011;64109;52.148;4.466;2023-03-02T05:19:26;5.15;;;3.70;;
67981;SDS011;64109;52.148;4.466;2023-03-02T05:21:52;5.28;;;3.92;;
67981;SDS011;64109;52.148;4.466;2023-03-02T05:24:18;5.22;;;4.13;;
67981;SDS011;64109;52.148;4.466;2023-03-02T05:26:44;5.05;;;3.95;;
67981;SDS011;64109;52.148;4.466;2023-03-02T05:29:10;5.30;;;4.10;;
67981;SDS011;64109;52.148;4.466;2023-03-02T05:31:37;5.28;;;4.30;;
67981;SDS011;64109;52.148;4.466;2023-03-02T05:34:05;4.22;;;3.60;;
67981;SDS011;64109;52.148;4.466;2023-03-02T05:36:32;5.22;;;4.00;;
67981;SDS011;64109;52.148;4.466;2023-03-02T05:38:58;4.70;;;3.95;;
67981;SDS011;64109;52.148;4.466;2023-03-02T05:41:24;5.15;;;4.13;;
67981;SDS011;64109;52.148;4.466;2023-03-02T05:43:50;5.18;;;3.85;;
67981;SDS011;64109;52.148;4.466;2023-03-02T05:46:16;5.05;;;4.38;;
67981;SDS011;64109;52.148;4.466;2023-03-02T05:48:42;4.35;;;3.75;;
67981;SDS011;64109;52.148;4.466;2023-03-02T05:51:09;5.35;;;3.95;;
67981;SDS011;64109;52.148;4.466;2023-03-02T05:53:35;5.28;;;3.15;;
67981;SDS011;64109;52.148;4.466;2023-03-02T05:56:01;4.70;;;4.18;;
67981;SDS011;64109;52.148;4.466;2023-03-02T05:58:28;5.15;;;3.97;;
67981;SDS011;64109;52.148;4.466;2023-03-02T06:00:54;4.57;;;3.92;;
67981;SDS011;64109;52.148;4.466;2023-03-02T06:03:20;5.60;;;5.03;;
67981;SDS011;64109;52.148;4.466;2023-03-02T06:05:46;4.47;;;2.90;;
67981;SDS011;64109;52.148;4.466;2023-03-02T06:08:16;4.97;;;3.67;;
67981;SDS011;64109;52.148;4.466;2023-03-02T06:10:42;4.75;;;4.25;;
67981;SDS011;64109;52.148;4.466;2023-03-02T06:13:08;4.68;;;3.58;;
67981;SDS011;64109;52.148;4.466;2023-03-02T06:15:35;4.97;;;3.70;;
67981;SDS011;64109;52.148;4.466;2023-03-02T06:18:01;4.50;;;3.97;;
67981;SDS011;64109;52.148;4.466;2023-03-02T06:20:27;4.38;;;3.97;;
67981;SDS011;64109;52.148;4.466;2023-03-02T06:22:53;4.20;;;3.55;;
67981;SDS011;64109;52.148;4.466;2023-03-02T06:25:20;4.60;;;3.75;;
67981;SDS011;64109;52.148;4.466;2023-03-02T06:27:46;4.75;;;3.67;;
67981;SDS011;64109;52.148;4.466;2023-03-02T06:30:16;5.18;;;3.88;;
67981;SDS011;64109;52.148;4.466;2023-03-02T06:32:42;11.98;;;6.70;;
67981;SDS011;64109;52.148;4.466;2023-03-02T06:35:08;9.45;;;5.80;;
67981;SDS011;64109;52.148;4.466;2023-03-02T06:37:35;9.75;;;6.53;;
67981;SDS011;64109;52.148;4.466;2023-03-02T06:40:01;11.32;;;7.05;;
67981;SDS011;64109;52.148;4.466;2023-03-02T06:42:32;11.05;;;6.88;;
67981;SDS011;64109;52.148;4.466;2023-03-02T06:44:58;11.02;;;7.43;;
67981;SDS011;64109;52.148;4.466;2023-03-02T06:47:24;9.80;;;6.65;;
67981;SDS011;64109;52.148;4.466;2023-03-02T06:49:50;9.02;;;6.68;;
67981;SDS011;64109;52.148;4.466;2023-03-02T06:52:16;8.10;;;5.95;;
67981;SDS011;64109;52.148;4.466;2023-03-02T06:54:42;7.95;;;5.57;;
67981;SDS011;64109;52.148;4.466;2023-03-02T06:57:08;9.63;;;4.07;;
67981;SDS011;64109;52.148;4.466;2023-03-02T06:59:34;14.63;;;6.22;;
67981;SDS011;64109;52.148;4.466;2023-03-02T07:02:00;9.02;;;5.97;;
67981;SDS011;64109;52.148;4.466;2023-03-02T07:04:26;8.13;;;5.65;;
67981;SDS011;64109;52.148;4.466;2023-03-02T07:06:53;7.28;;;4.55;;
67981;SDS011;64109;52.148;4.466;2023-03-02T07:09:19;8.25;;;4.70;;
67981;SDS011;64109;52.148;4.466;2023-03-02T07:11:45;8.43;;;4.35;;
67981;SDS011;64109;52.148;4.466;2023-03-02T07:14:10;6.95;;;4.13;;
67981;SDS011;64109;52.148;4.466;2023-03-02T07:16:36;7.75;;;4.07;;
67981;SDS011;64109;52.148;4.466;2023-03-02T07:19:02;6.32;;;4.72;;
67981;SDS011;64109;52.148;4.466;2023-03-02T07:21:28;6.22;;;4.45;;
67981;SDS011;64109;52.148;4.466;2023-03-02T07:23:54;6.03;;;4.35;;
67981;SDS011;64109;52.148;4.466;2023-03-02T07:26:20;11.02;;;5.20;;
67981;SDS011;64109;52.148;4.466;2023-03-02T07:28:46;7.65;;;5.18;;
67981;SDS011;64109;52.148;4.466;2023-03-02T07:31:12;6.00;;;4.07;;
67981;SDS011;64109;52.148;4.466;2023-03-02T07:33:38;7.20;;;4.88;;
67981;SDS011;64109;52.148;4.466;2023-03-02T07:36:05;5.85;;;3.95;;
67981;SDS011;64109;52.148;4.466;2023-03-02T07:38:32;8.88;;;4.22;;
67981;SDS011;64109;52.148;4.466;2023-03-02T07:40:58;6.15;;;3.17;;
67981;SDS011;64109;52.148;4.466;2023-03-02T07:43:24;5.55;;;3.35;;
67981;SDS011;64109;52.148;4.466;2023-03-02T07:45:51;3.65;;;2.83;;
67981;SDS011;64109;52.148;4.466;2023-03-02T07:48:17;4.57;;;2.33;;
67981;SDS011;64109;52.148;4.466;2023-03-02T07:50:43;8.25;;;3.25;;
67981;SDS011;64109;52.148;4.466;2023-03-02T07:53:09;6.93;;;3.60;;
67981;SDS011;64109;52.148;4.466;2023-03-02T07:55:38;6.88;;;4.28;;
67981;SDS011;64109;52.148;4.466;2023-03-02T07:58:04;6.18;;;4.07;;
67981;SDS011;64109;52.148;4.466;2023-03-02T08:00:30;5.65;;;3.55;;
67981;SDS011;64109;52.148;4.466;2023-03-02T08:02:56;3.65;;;2.75;;
67981;SDS011;64109;52.148;4.466;2023-03-02T08:05:22;5.05;;;3.10;;
67981;SDS011;64109;52.148;4.466;2023-03-02T08:07:48;3.92;;;3.45;;
67981;SDS011;64109;52.148;4.466;2023-03-02T08:10:14;5.55;;;3.58;;
67981;SDS011;64109;52.148;4.466;2023-03-02T08:12:40;3.67;;;3.13;;
67981;SDS011;64109;52.148;4.466;2023-03-02T08:15:09;4.93;;;3.10;;
67981;SDS011;64109;52.148;4.466;2023-03-02T08:17:35;3.92;;;2.72;;
67981;SDS011;64109;52.148;4.466;2023-03-02T08:20:01;2.72;;;2.17;;
67981;SDS011;64109;52.148;4.466;2023-03-02T08:22:28;3.75;;;2.72;;
67981;SDS011;64109;52.148;4.466;2023-03-02T08:24:54;3.03;;;2.65;;
67981;SDS011;64109;52.148;4.466;2023-03-02T08:27:20;6.10;;;2.60;;
67981;SDS011;64109;52.148;4.466;2023-03-02T08:29:46;4.10;;;2.67;;
67981;SDS011;64109;52.148;4.466;2023-03-02T08:32:12;2.92;;;2.42;;
67981;SDS011;64109;52.148;4.466;2023-03-02T08:34:38;3.53;;;2.85;;
67981;SDS011;64109;52.148;4.466;2023-03-02T08:37:04;3.03;;;2.65;;
67981;SDS011;64109;52.148;4.466;2023-03-02T08:39:30;3.75;;;2.70;;
67981;SDS011;64109;52.148;4.466;2023-03-02T08:41:57;4.15;;;3.03;;
67981;SDS011;64109;52.148;4.466;2023-03-02T08:44:23;4.18;;;3.17;;
67981;SDS011;64109;52.148;4.466;2023-03-02T08:46:49;3.03;;;2.72;;
67981;SDS011;64109;52.148;4.466;2023-03-02T08:49:15;3.22;;;2.83;;
67981;SDS011;64109;52.148;4.466;2023-03-02T08:51:42;3.65;;;2.60;;
67981;SDS011;64109;52.148;4.466;2023-03-02T08:54:08;6.20;;;4.88;;
67981;SDS011;64109;52.148;4.466;2023-03-02T08:56:35;7.95;;;3.72;;
67981;SDS011;64109;52.148;4.466;2023-03-02T08:59:02;5.47;;;3.90;;
67981;SDS011;64109;52.148;4.466;2023-03-02T09:01:30;9.10;;;4.82;;
67981;SDS011;64109;52.148;4.466;2023-03-02T09:03:57;6.15;;;4.00;;
67981;SDS011;64109;52.148;4.466;2023-03-02T09:06:24;6.20;;;4.15;;
67981;SDS011;64109;52.148;4.466;2023-03-02T09:08:51;5.75;;;4.10;;
67981;SDS011;64109;52.148;4.466;2023-03-02T09:11:17;6.50;;;4.75;;
67981;SDS011;64109;52.148;4.466;2023-03-02T09:13:43;5.38;;;3.92;;
67981;SDS011;64109;52.148;4.466;2023-03-02T09:16:09;7.20;;;4.43;;
67981;SDS011;64109;52.148;4.466;2023-03-02T09:18:35;8.15;;;5.15;;
67981;SDS011;64109;52.148;4.466;2023-03-02T09:21:01;5.20;;;4.07;;
67981;SDS011;64109;52.148;4.466;2023-03-02T09:23:27;6.40;;;4.32;;
67981;SDS011;64109;52.148;4.466;2023-03-02T09:25:53;7.15;;;4.55;;
67981;SDS011;64109;52.148;4.466;2023-03-02T09:28:20;5.85;;;4.28;;
67981;SDS011;64109;52.148;4.466;2023-03-02T09:30:52;7.13;;;4.20;;
67981;SDS011;64109;52.148;4.466;2023-03-02T09:33:19;6.55;;;4.05;;
67981;SDS011;64109;52.148;4.466;2023-03-02T09:35:45;5.63;;;4.55;;
67981;SDS011;64109;52.148;4.466;2023-03-02T09:38:11;9.45;;;4.45;;
67981;SDS011;64109;52.148;4.466;2023-03-02T09:40:45;7.07;;;4.25;;
67981;SDS011;64109;52.148;4.466;2023-03-02T09:50:39;4.90;;;3.95;;
67981;SDS011;64109;52.148;4.466;2023-03-02T09:55:52;6.18;;;3.30;;
67981;SDS011;64109;52.148;4.466;2023-03-02T09:58:19;4.65;;;3.58;;
67981;SDS011;64109;52.148;4.466;2023-03-02T10:00:46;5.95;;;3.15;;
67981;SDS011;64109;52.148;4.466;2023-03-02T10:03:17;4.70;;;3.97;;
67981;SDS011;64109;52.148;4.466;2023-03-02T10:05:47;5.88;;;3.83;;
67981;SDS011;64109;52.148;4.466;2023-03-02T10:08:17;6.93;;;3.83;;
67981;SDS011;64109;52.148;4.466;2023-03-02T10:18:35;6.38;;;3.55;;
67981;SDS011;64109;52.148;4.466;2023-03-02T10:31:38;6.50;;;4.03;;
67981;SDS011;64109;52.148;4.466;2023-03-02T10:34:06;4.68;;;3.78;;
67981;SDS011;64109;52.148;4.466;2023-03-02T10:36:36;5.88;;;3.55;;
67981;SDS011;64109;52.148;4.466;2023-03-02T10:39:05;11.23;;;3.63;;
67981;SDS011;64109;52.148;4.466;2023-03-02T10:41:38;5.47;;;3.70;;
67981;SDS011;64109;52.148;4.466;2023-03-02T10:44:20;5.18;;;3.30;;
67981;SDS011;64109;52.148;4.466;2023-03-02T10:46:47;4.32;;;2.80;;
67981;SDS011;64109;52.148;4.466;2023-03-02T10:49:22;5.45;;;3.63;;
67981;SDS011;64109;52.148;4.466;2023-03-02T10:51:56;4.10;;;2.78;;
67981;SDS011;64109;52.148;4.466;2023-03-02T10:54:22;5.25;;;3.40;;
67981;SDS011;64109;52.148;4.466;2023-03-02T10:56:50;5.25;;;3.88;;
67981;SDS011;64109;52.148;4.466;2023-03-02T11:02:03;5.22;;;3.78;;
67981;SDS011;64109;52.148;4.466;2023-03-02T11:04:29;5.70;;;4.57;;
67981;SDS011;64109;52.148;4.466;2023-03-02T11:07:05;4.70;;;3.42;;
67981;SDS011;64109;52.148;4.466;2023-03-02T11:09:31;5.03;;;3.50;;
67981;SDS011;64109;52.148;4.466;2023-03-02T11:11:57;4.00;;;3.38;;
67981;SDS011;64109;52.148;4.466;2023-03-02T11:14:24;5.28;;;3.35;;
67981;SDS011;64109;52.148;4.466;2023-03-02T11:16:51;5.63;;;3.83;;
67981;SDS011;64109;52.148;4.466;2023-03-02T11:19:50;6.50;;;3.75;;
67981;SDS011;64109;52.148;4.466;2023-03-02T11:22:13;4.38;;;2.85;;
67981;SDS011;64109;52.148;4.466;2023-03-02T11:24:46;4.55;;;2.55;;
67981;SDS011;64109;52.148;4.466;2023-03-02T11:29:59;5.65;;;3.60;;
67981;SDS011;64109;52.148;4.466;2023-03-02T11:32:32;5.10;;;3.50;;
67981;SDS011;64109;52.148;4.466;2023-03-02T11:37:27;5.32;;;2.28;;
67981;SDS011;64109;52.148;4.466;2023-03-02T11:40:16;5.45;;;3.15;;
67981;SDS011;64109;52.148;4.466;2023-03-02T11:42:44;6.13;;;3.25;;
67981;SDS011;64109;52.148;4.466;2023-03-02T11:47:40;5.30;;;3.72;;
67981;SDS011;64109;52.148;4.466;2023-03-02T11:50:09;5.57;;;3.67;;
67981;SDS011;64109;52.148;4.466;2023-03-02T11:52:37;4.85;;;3.33;;
67981;SDS011;64109;52.148;4.466;2023-03-02T11:57:43;5.38;;;2.90;;
67981;SDS011;64109;52.148;4.466;2023-03-02T12:00:22;5.70;;;3.25;;
67981;SDS011;64109;52.148;4.466;2023-03-02T12:02:59;4.93;;;3.42;;
67981;SDS011;64109;52.148;4.466;2023-03-02T12:05:27;5.45;;;3.17;;
67981;SDS011;64109;52.148;4.466;2023-03-02T12:08:04;4.53;;;2.55;;
67981;SDS011;64109;52.148;4.466;2023-03-02T12:10:32;3.65;;;2.00;;
67981;SDS011;64109;52.148;4.466;2023-03-02T12:13:01;3.25;;;2.95;;
67981;SDS011;64109;52.148;4.466;2023-03-02T12:15:35;5.38;;;3.10;;
67981;SDS011;64109;52.148;4.466;2023-03-02T12:18:01;4.55;;;3.30;;
67981;SDS011;64109;52.148;4.466;2023-03-02T12:20:28;4.47;;;3.22;;
67981;SDS011;64109;52.148;4.466;2023-03-02T12:23:04;4.07;;;3.17;;
67981;SDS011;64109;52.148;4.466;2023-03-02T12:25:41;3.97;;;3.08;;
67981;SDS011;64109;52.148;4.466;2023-03-02T12:28:25;4.30;;;3.20;;
67981;SDS011;64109;52.148;4.466;2023-03-02T12:30:55;4.03;;;3.28;;
67981;SDS011;64109;52.148;4.466;2023-03-02T12:33:21;4.10;;;2.85;;
67981;SDS011;64109;52.148;4.466;2023-03-02T12:35:47;5.28;;;3.63;;
67981;SDS011;64109;52.148;4.466;2023-03-02T12:38:28;4.90;;;3.47;;
67981;SDS011;64109;52.148;4.466;2023-03-02T12:43:34;5.53;;;3.33;;
67981;SDS011;64109;52.148;4.466;2023-03-02T12:51:19;4.70;;;3.35;;
67981;SDS011;64109;52.148;4.466;2023-03-02T12:53:46;4.47;;;3.42;;
67981;SDS011;64109;52.148;4.466;2023-03-02T12:56:22;4.20;;;3.42;;
67981;SDS011;64109;52.148;4.466;2023-03-02T12:58:49;4.78;;;3.10;;
67981;SDS011;64109;52.148;4.466;2023-03-02T13:01:27;4.63;;;2.72;;
67981;SDS011;64109;52.148;4.466;2023-03-02T13:03:53;3.90;;;2.90;;
67981;SDS011;64109;52.148;4.466;2023-03-02T13:06:20;7.75;;;3.63;;
67981;SDS011;64109;52.148;4.466;2023-03-02T13:08:55;7.10;;;3.72;;
67981;SDS011;64109;52.148;4.466;2023-03-02T13:11:29;9.27;;;3.20;;
67981;SDS011;64109;52.148;4.466;2023-03-02T13:13:56;6.78;;;3.30;;
67981;SDS011;64109;52.148;4.466;2023-03-02T13:16:24;4.93;;;3.38;;
67981;SDS011;64109;52.148;4.466;2023-03-02T13:18:52;4.13;;;3.10;;
67981;SDS011;64109;52.148;4.466;2023-03-02T13:21:20;5.10;;;3.28;;
67981;SDS011;64109;52.148;4.466;2023-03-02T13:23:49;4.82;;;3.05;;
67981;SDS011;64109;52.148;4.466;2023-03-02T13:26:25;6.03;;;2.90;;
67981;SDS011;64109;52.148;4.466;2023-03-02T13:29:05;5.47;;;3.55;;
67981;SDS011;64109;52.148;4.466;2023-03-02T13:31:32;7.80;;;3.20;;
67981;SDS011;64109;52.148;4.466;2023-03-02T13:33:58;5.78;;;3.40;;
67981;SDS011;64109;52.148;4.466;2023-03-02T13:36:25;5.47;;;3.50;;
67981;SDS011;64109;52.148;4.466;2023-03-02T13:38:53;4.70;;;2.95;;
67981;SDS011;64109;52.148;4.466;2023-03-02T13:41:24;8.60;;;3.33;;
67981;SDS011;64109;52.148;4.466;2023-03-02T13:43:50;4.43;;;3.00;;
67981;SDS011;64109;52.148;4.466;2023-03-02T13:48:52;3.75;;;2.83;;
67981;SDS011;64109;52.148;4.466;2023-03-02T13:51:18;4.43;;;3.83;;
67981;SDS011;64109;52.148;4.466;2023-03-02T13:53:56;5.32;;;3.45;;
67981;SDS011;64109;52.148;4.466;2023-03-02T13:56:24;6.05;;;3.30;;
67981;SDS011;64109;52.148;4.466;2023-03-02T13:58:51;4.32;;;3.63;;
67981;SDS011;64109;52.148;4.466;2023-03-02T14:01:17;4.55;;;3.65;;
67981;SDS011;64109;52.148;4.466;2023-03-02T14:03:43;6.80;;;3.35;;
67981;SDS011;64109;52.148;4.466;2023-03-02T14:06:09;3.95;;;3.17;;
67981;SDS011;64109;52.148;4.466;2023-03-02T14:08:35;5.00;;;3.08;;
67981;SDS011;64109;52.148;4.466;2023-03-02T14:11:01;3.53;;;2.75;;
67981;SDS011;64109;52.148;4.466;2023-03-02T14:13:48;5.55;;;2.95;;
67981;SDS011;64109;52.148;4.466;2023-03-02T14:16:17;5.40;;;3.40;;
67981;SDS011;64109;52.148;4.466;2023-03-02T14:18:44;4.38;;;2.10;;
67981;SDS011;64109;52.148;4.466;2023-03-02T14:21:15;5.85;;;3.33;;
67981;SDS011;64109;52.148;4.466;2023-03-02T14:23:41;4.72;;;3.35;;
67981;SDS011;64109;52.148;4.466;2023-03-02T14:26:16;4.78;;;3.53;;
67981;SDS011;64109;52.148;4.466;2023-03-02T14:28:43;3.53;;;3.00;;
67981;SDS011;64109;52.148;4.466;2023-03-02T14:31:10;4.60;;;3.13;;
67981;SDS011;64109;52.148;4.466;2023-03-02T14:33:36;4.25;;;3.33;;
67981;SDS011;64109;52.148;4.466;2023-03-02T14:36:02;5.32;;;3.53;;
67981;SDS011;64109;52.148;4.466;2023-03-02T14:38:30;5.03;;;3.38;;
67981;SDS011;64109;52.148;4.466;2023-03-02T14:40:56;3.60;;;2.95;;
67981;SDS011;64109;52.148;4.466;2023-03-02T14:43:22;4.70;;;2.60;;
67981;SDS011;64109;52.148;4.466;2023-03-02T14:45:49;4.57;;;3.17;;
67981;SDS011;64109;52.148;4.466;2023-03-02T14:48:16;5.40;;;3.05;;
67981;SDS011;64109;52.148;4.466;2023-03-02T14:50:43;4.32;;;3.05;;
67981;SDS011;64109;52.148;4.466;2023-03-02T14:53:11;5.57;;;3.08;;
67981;SDS011;64109;52.148;4.466;2023-03-02T14:55:39;4.00;;;2.78;;
67981;SDS011;64109;52.148;4.466;2023-03-02T14:58:16;4.22;;;3.08;;
67981;SDS011;64109;52.148;4.466;2023-03-02T15:00:44;4.50;;;3.08;;
67981;SDS011;64109;52.148;4.466;2023-03-02T15:03:14;4.10;;;2.38;;
67981;SDS011;64109;52.148;4.466;2023-03-02T15:05:40;4.53;;;3.47;;
67981;SDS011;64109;52.148;4.466;2023-03-02T15:08:08;4.63;;;2.38;;
67981;SDS011;64109;52.148;4.466;2023-03-02T15:10:35;5.93;;;3.30;;
67981;SDS011;64109;52.148;4.466;2023-03-02T15:13:00;4.18;;;2.97;;
67981;SDS011;64109;52.148;4.466;2023-03-02T15:15:26;3.97;;;2.92;;
67981;SDS011;64109;52.148;4.466;2023-03-02T15:17:53;5.35;;;3.45;;
67981;SDS011;64109;52.148;4.466;2023-03-02T15:20:19;4.90;;;3.15;;
67981;SDS011;64109;52.148;4.466;2023-03-02T15:22:45;5.40;;;2.85;;
67981;SDS011;64109;52.148;4.466;2023-03-02T15:25:11;4.82;;;2.88;;
67981;SDS011;64109;52.148;4.466;2023-03-02T15:27:37;4.80;;;3.08;;
67981;SDS011;64109;52.148;4.466;2023-03-02T15:30:03;4.72;;;3.03;;
67981;SDS011;64109;52.148;4.466;2023-03-02T15:32:29;5.20;;;3.15;;
67981;SDS011;64109;52.148;4.466;2023-03-02T15:34:55;5.57;;;3.60;;
67981;SDS011;64109;52.148;4.466;2023-03-02T15:37:21;3.85;;;2.72;;
67981;SDS011;64109;52.148;4.466;2023-03-02T15:39:51;4.05;;;2.10;;
67981;SDS011;64109;52.148;4.466;2023-03-02T15:42:18;4.15;;;3.40;;
67981;SDS011;64109;52.148;4.466;2023-03-02T15:44:44;7.15;;;3.63;;
67981;SDS011;64109;52.148;4.466;2023-03-02T15:47:10;5.82;;;3.20;;
67981;SDS011;64109;52.148;4.466;2023-03-02T15:49:36;3.80;;;2.83;;